createdAt,value
2018-10-19T00:01:24.067Z,36.77
2018-10-19T00:03:53.103Z,37.57
2018-10-19T00:06:22.132Z,43.97
2018-10-19T00:08:51.160Z,45.30
2018-10-19T00:11:20.203Z,41.87
2018-10-19T00:13:49.303Z,42.03
2018-10-19T00:16:18.328Z,39.70
2018-10-19T00:18:47.395Z,42.87
2018-10-19T00:21:16.424Z,46.97
2018-10-19T00:23:45.513Z,44.50
2018-10-19T00:26:14.594Z,39.70
2018-10-19T00:28:43.604Z,42.87
2018-10-19T00:31:12.714Z,39.87
2018-10-19T00:33:41.760Z,42.93
2018-10-19T00:36:10.779Z,43.83
2018-10-19T00:38:39.815Z,41.73
2018-10-19T00:41:08.935Z,44.53
2018-10-19T00:43:37.881Z,39.80
2018-10-19T00:46:06.899Z,43.70
2018-10-19T00:48:35.947Z,42.10
2018-10-19T00:51:05.055Z,42.40
2018-10-19T00:53:34.391Z,39.57
2018-10-19T00:56:03.412Z,37.47
2018-10-19T00:58:32.436Z,38.80
2018-10-19T01:01:01.599Z,39.53
2018-10-19T01:03:30.621Z,38.63
2018-10-19T01:05:59.679Z,37.37
2018-10-19T01:08:28.697Z,37.30
2018-10-19T01:10:57.792Z,37.03
2018-10-19T01:13:26.760Z,35.33
2018-10-19T01:15:55.803Z,37.37
2018-10-19T01:18:24.858Z,41.93
2018-10-19T01:20:53.983Z,42.17
2018-10-19T01:23:22.988Z,39.77
2018-10-19T01:25:52.001Z,40.00
2018-10-19T01:28:21.054Z,34.23
2018-10-19T01:30:50.047Z,35.30
2018-10-19T01:33:19.234Z,38.50
2018-10-19T01:35:48.235Z,39.47
2018-10-19T01:38:17.275Z,41.43
2018-10-19T01:40:46.318Z,41.70
2018-10-19T01:43:15.370Z,42.03
2018-10-19T01:45:58.763Z,45.33
2018-10-19T01:48:28.350Z,45.33
2018-10-19T01:50:58.076Z,43.80
2018-10-19T01:53:27.206Z,43.30
2018-10-19T01:55:56.267Z,46.40
2018-10-19T01:58:26.287Z,51.17
2018-10-19T02:00:55.389Z,51.03
2018-10-19T02:03:24.419Z,46.87
2018-10-19T02:05:53.444Z,42.87
2018-10-19T02:08:22.537Z,51.27
2018-10-19T02:10:51.543Z,48.30
2018-10-19T02:13:20.932Z,46.87
2018-10-19T02:15:49.924Z,44.23
2018-10-19T02:18:18.975Z,48.00
2018-10-19T02:20:48.076Z,44.90
2018-10-19T02:23:17.196Z,46.97
2018-10-19T02:25:46.130Z,46.40
2018-10-19T02:28:15.177Z,45.77
2018-10-19T02:30:44.365Z,45.87
2018-10-19T02:33:13.467Z,42.97
2018-10-19T02:35:42.371Z,42.43
2018-10-19T02:38:11.397Z,43.43
2018-10-19T02:40:40.426Z,44.10
2018-10-19T02:43:09.458Z,47.43
2018-10-19T02:45:41.864Z,44.60
2018-10-19T02:48:11.711Z,41.47
2018-10-19T02:50:40.786Z,44.27
2018-10-19T02:53:09.804Z,47.23
2018-10-19T02:55:38.836Z,46.83
2018-10-19T02:58:07.847Z,47.53
2018-10-19T03:00:36.884Z,45.57
2018-10-19T03:03:05.950Z,45.07
2018-10-19T03:05:34.919Z,43.43
2018-10-19T03:08:03.950Z,45.43
2018-10-19T03:10:32.960Z,43.43
2018-10-19T03:13:02.019Z,51.33
2018-10-19T03:15:31.043Z,43.67
2018-10-19T03:18:00.061Z,46.40
2018-10-19T03:20:29.075Z,48.50
2018-10-19T03:22:58.096Z,46.17
2018-10-19T03:25:27.148Z,51.17
2018-10-19T03:27:56.195Z,42.23
2018-10-19T03:30:25.411Z,44.63
2018-10-19T03:32:54.433Z,48.33
2018-10-19T03:35:23.522Z,45.57
2018-10-19T03:37:52.536Z,40.13
2018-10-19T03:40:21.643Z,47.57
2018-10-19T03:42:50.713Z,46.73
2018-10-19T03:45:19.720Z,39.53
2018-10-19T03:47:48.752Z,40.00
2018-10-19T03:50:17.772Z,45.27
2018-10-19T03:52:46.799Z,40.17
2018-10-19T03:55:15.810Z,41.77
2018-10-19T03:57:44.831Z,43.17
2018-10-19T04:00:13.866Z,42.37
2018-10-19T04:02:42.925Z,39.77
2018-10-19T04:05:11.973Z,44.97
2018-10-19T04:07:40.956Z,40.50
2018-10-19T04:10:09.994Z,38.97
2018-10-19T04:12:39.116Z,41.40
2018-10-19T04:15:08.845Z,40.70
2018-10-19T04:17:37.808Z,38.90
2018-10-19T04:20:06.844Z,40.77
2018-10-19T04:22:35.892Z,38.63
2018-10-19T04:25:05.208Z,38.53
2018-10-19T04:27:34.259Z,36.70
2018-10-19T04:30:05.803Z,38.57
2018-10-19T04:32:34.848Z,37.37
2018-10-19T04:35:04.026Z,39.53
2018-10-19T04:37:32.983Z,34.30
2018-10-19T04:40:01.996Z,37.50
2018-10-19T04:42:31.036Z,40.30
2018-10-19T04:45:00.063Z,36.77
2018-10-19T04:47:29.181Z,40.63
2018-10-19T04:49:58.175Z,38.00
2018-10-19T04:52:27.245Z,55.43
2018-10-19T04:54:56.263Z,38.33
2018-10-19T04:57:25.463Z,38.73
2018-10-19T04:59:54.492Z,37.93
2018-10-19T05:02:23.535Z,36.30
2018-10-19T05:04:52.616Z,40.23
2018-10-19T05:07:21.553Z,40.93
2018-10-19T05:09:50.587Z,37.87
2018-10-19T05:12:19.678Z,35.53
2018-10-19T05:14:48.640Z,38.53
2018-10-19T05:17:17.670Z,39.10
2018-10-19T05:19:46.713Z,37.57
2018-10-19T05:22:15.737Z,45.43
2018-10-19T05:24:44.800Z,36.23
2018-10-19T05:29:48.917Z,35.63
2018-10-19T05:32:18.004Z,38.23
2018-10-19T05:34:47.015Z,41.50
2018-10-19T05:37:16.108Z,40.70
2018-10-19T05:39:45.169Z,38.70
2018-10-19T05:42:14.168Z,38.83
2018-10-19T05:44:43.208Z,38.50
2018-10-19T05:47:12.239Z,34.87
2018-10-19T05:49:41.255Z,34.80
2018-10-19T05:52:10.351Z,37.87
2018-10-19T05:54:39.236Z,36.87
2018-10-19T05:57:08.260Z,41.50
2018-10-19T05:59:37.272Z,41.63
2018-10-19T06:02:06.856Z,36.40
2018-10-19T06:04:35.780Z,36.60
2018-10-19T06:07:05.166Z,43.03
2018-10-19T06:09:34.420Z,38.87
2018-10-19T06:12:03.479Z,39.97
2018-10-19T06:14:32.584Z,42.07
2018-10-19T06:17:01.663Z,34.50
2018-10-19T06:19:30.625Z,40.03
2018-10-19T06:21:59.656Z,38.30
2018-10-19T06:24:28.679Z,45.70
2018-10-19T06:26:57.706Z,36.27
2018-10-19T06:29:26.716Z,37.67
2018-10-19T06:31:55.782Z,39.07
2018-10-19T06:34:24.867Z,34.40
2018-10-19T06:36:53.874Z,31.67
2018-10-19T06:39:22.915Z,38.43
2018-10-19T06:41:51.927Z,35.93
2018-10-19T06:44:21.014Z,31.53
2018-10-19T06:46:50.307Z,36.20
2018-10-19T06:49:19.267Z,36.77
2018-10-19T06:51:48.307Z,34.07
2018-10-19T06:54:17.470Z,33.53
2018-10-19T06:56:46.508Z,36.47
2018-10-19T06:59:16.059Z,35.50
2018-10-19T07:01:45.150Z,29.80
2018-10-19T07:04:14.156Z,42.27
2018-10-19T07:06:43.195Z,32.33
2018-10-19T07:09:12.239Z,30.07
2018-10-19T07:11:41.263Z,36.80
2018-10-19T07:14:10.442Z,36.43
2018-10-19T07:16:39.367Z,34.40
2018-10-19T07:19:08.475Z,32.77
2018-10-19T07:21:37.445Z,34.47
2018-10-19T07:24:06.562Z,35.23
2018-10-19T07:26:35.637Z,38.47
2018-10-19T07:29:04.824Z,34.23
2018-10-19T07:31:33.840Z,30.63
2018-10-19T07:34:02.910Z,34.43
2018-10-19T07:36:32.060Z,35.77
2018-10-19T07:39:01.023Z,34.30
2018-10-19T07:41:30.360Z,32.80
2018-10-19T07:43:59.510Z,32.77
2018-10-19T07:46:28.460Z,34.97
2018-10-19T07:48:57.496Z,36.90
2018-10-19T07:51:26.528Z,33.87
2018-10-19T07:53:55.641Z,34.37
2018-10-19T07:56:24.660Z,38.17
2018-10-19T07:58:53.750Z,40.63
2018-10-19T08:01:22.750Z,32.80
2018-10-19T08:03:52.071Z,31.43
2018-10-19T08:06:21.120Z,33.37
2018-10-19T08:08:50.143Z,36.90
2018-10-19T08:11:19.207Z,33.97
2018-10-19T08:13:48.263Z,34.27
2018-10-19T08:16:17.284Z,39.07
2018-10-19T08:18:46.364Z,30.53
2018-10-19T08:21:15.479Z,41.37
2018-10-19T08:23:44.682Z,33.93
2018-10-19T08:26:13.797Z,35.60
2018-10-19T08:28:42.727Z,38.40
2018-10-19T08:31:11.835Z,34.70
2018-10-19T08:33:40.936Z,36.17
2018-10-19T08:36:09.976Z,38.07
2018-10-19T08:38:39.023Z,38.57
2018-10-19T08:41:08.143Z,41.30
2018-10-19T08:43:37.124Z,38.73
2018-10-19T08:46:11.712Z,36.77
2018-10-19T08:48:40.807Z,35.13
2018-10-19T08:51:09.901Z,38.40
2018-10-19T08:53:38.995Z,44.57
2018-10-19T08:56:08.044Z,35.60
2018-10-19T08:58:37.136Z,39.47
2018-10-19T09:01:06.347Z,37.90
2018-10-19T09:03:35.451Z,38.73
2018-10-19T09:06:04.729Z,37.57
2018-10-19T09:08:33.795Z,35.23
2018-10-19T09:11:02.869Z,37.97
2018-10-19T09:13:31.987Z,37.97
2018-10-19T09:16:00.990Z,37.07
2018-10-19T09:18:30.072Z,40.10
2018-10-19T09:20:59.089Z,36.30
2018-10-19T09:23:28.059Z,36.87
2018-10-19T09:25:57.107Z,40.40
2018-10-19T09:28:26.133Z,45.40
2018-10-19T09:30:55.404Z,39.63
2018-10-19T09:33:24.418Z,41.57
2018-10-19T09:35:53.461Z,35.87
2018-10-19T09:38:22.503Z,35.63
2018-10-19T09:40:51.573Z,38.90
2018-10-19T09:43:20.603Z,39.60
2018-10-19T09:45:49.630Z,38.63
2018-10-19T09:48:18.887Z,37.47
2018-10-19T09:50:47.960Z,36.23
2018-10-19T09:53:17.031Z,37.87
2018-10-19T09:55:46.069Z,35.90
2018-10-19T09:58:15.088Z,39.00
2018-10-19T10:00:49.484Z,36.90
2018-10-19T10:03:18.517Z,35.17
2018-10-19T10:05:47.571Z,39.87
2018-10-19T10:08:16.592Z,37.73
2018-10-19T10:10:45.815Z,36.67
2018-10-19T10:13:15.025Z,43.50
2018-10-19T10:15:44.024Z,41.37
2018-10-19T10:18:13.004Z,36.43
2018-10-19T10:20:42.035Z,38.83
2018-10-19T10:23:11.084Z,38.37
2018-10-19T10:25:40.127Z,38.30
2018-10-19T10:28:09.200Z,39.47
2018-10-19T10:30:38.284Z,33.90
2018-10-19T10:33:07.366Z,38.07
2018-10-19T10:35:36.400Z,35.97
2018-10-19T10:38:05.851Z,33.10
2018-10-19T10:40:34.902Z,35.77
2018-10-19T10:43:04.004Z,36.43
2018-10-19T10:45:33.024Z,31.07
2018-10-19T10:48:02.059Z,40.20
2018-10-19T10:50:31.093Z,39.20
2018-10-19T10:53:00.118Z,34.37
2018-10-19T10:55:29.144Z,35.83
2018-10-19T10:57:58.229Z,36.33
2018-10-19T11:00:27.330Z,32.57
2018-10-19T11:02:56.341Z,35.27
2018-10-19T11:05:25.428Z,39.73
2018-10-19T11:07:54.468Z,39.60
2018-10-19T11:10:23.504Z,34.67
2018-10-19T11:12:52.574Z,36.20
2018-10-19T11:15:21.601Z,36.23
2018-10-19T11:17:50.632Z,36.73
2018-10-19T11:20:19.643Z,35.90
2018-10-19T11:22:48.694Z,35.48
2018-10-19T11:27:46.843Z,37.28
2018-10-19T11:30:15.891Z,35.35
2018-10-19T11:32:44.935Z,32.98
2018-10-19T11:35:14.109Z,37.95
2018-10-19T11:37:43.290Z,33.92
2018-10-19T11:40:34.999Z,35.60
2018-10-19T11:43:04.122Z,33.45
2018-10-19T11:45:33.996Z,39.03
2018-10-19T11:48:03.131Z,37.23
2018-10-19T11:50:32.191Z,34.63
2018-10-19T11:53:01.315Z,35.90
2018-10-19T11:55:30.361Z,35.00
2018-10-19T11:57:59.373Z,36.80
2018-10-19T12:00:28.450Z,36.38
2018-10-19T12:02:57.508Z,37.08
2018-10-19T12:05:26.567Z,36.68
2018-10-19T12:07:55.596Z,35.78
2018-10-19T12:10:24.707Z,35.40
2018-10-19T12:12:53.771Z,33.55
2018-10-19T12:15:23.025Z,35.38
2018-10-19T12:17:52.027Z,32.38
2018-10-19T12:20:21.087Z,34.55
2018-10-19T12:22:50.114Z,33.18
2018-10-19T12:25:19.143Z,32.67
2018-10-19T12:27:48.259Z,34.20
2018-10-19T12:30:17.283Z,33.15
2018-10-19T12:32:46.332Z,33.55
2018-10-19T12:35:15.476Z,33.48
2018-10-19T12:37:44.548Z,33.48
2018-10-19T12:40:13.589Z,29.60
2018-10-19T12:42:42.707Z,35.73
2018-10-19T12:46:27.312Z,36.55
2018-10-19T12:48:56.731Z,32.30
2018-10-19T12:51:25.715Z,31.07
2018-10-19T12:53:54.846Z,29.20
2018-10-19T12:56:24.107Z,30.80
2018-10-19T12:58:53.883Z,35.90
2018-10-19T13:01:23.944Z,30.40
2018-10-19T13:03:53.309Z,28.23
2018-10-19T13:06:22.407Z,30.75
2018-10-19T13:08:51.837Z,31.12
2018-10-19T13:11:20.846Z,32.35
2018-10-19T13:13:49.900Z,34.27
2018-10-19T13:16:18.943Z,29.05
2018-10-19T13:18:47.981Z,32.10
2018-10-19T13:21:17.132Z,31.40
2018-10-19T13:23:46.060Z,44.30
2018-10-19T13:26:15.088Z,32.03
2018-10-19T13:28:44.179Z,29.72
2018-10-19T13:31:13.195Z,34.38
2018-10-19T13:33:42.255Z,31.68
2018-10-19T13:36:11.434Z,29.48
2018-10-19T13:38:40.395Z,32.48
2018-10-19T13:41:09.441Z,32.50
2018-10-19T13:43:39.032Z,31.55
2018-10-19T13:46:08.071Z,28.25
2018-10-19T13:48:37.129Z,27.50
2018-10-19T13:51:06.212Z,27.93
2018-10-19T13:53:35.231Z,27.93
2018-10-19T13:56:04.248Z,28.32
2018-10-19T13:58:33.317Z,27.40
2018-10-19T14:01:02.728Z,35.85
2018-10-19T14:03:31.771Z,31.02
2018-10-19T14:06:00.796Z,33.73
2018-10-19T14:08:29.811Z,31.42
2018-10-19T14:10:58.942Z,34.00
2018-10-19T14:13:27.915Z,31.62
2018-10-19T14:15:56.950Z,28.50
2018-10-19T14:18:25.978Z,35.70
2018-10-19T14:20:55.009Z,31.80
2018-10-19T14:23:24.021Z,27.67
2018-10-19T14:25:53.038Z,29.87
2018-10-19T14:28:22.087Z,32.95
2018-10-19T14:30:51.152Z,32.20
2018-10-19T14:33:20.336Z,30.88
2018-10-19T14:35:49.258Z,32.60
2018-10-19T14:38:18.295Z,31.97
2018-10-19T14:40:47.327Z,32.48
2018-10-19T14:43:16.387Z,29.57
2018-10-19T14:45:45.395Z,32.38
2018-10-19T14:48:14.403Z,32.83
2018-10-19T14:50:43.438Z,29.48
2018-10-19T14:53:12.487Z,31.10
2018-10-19T14:55:41.750Z,28.75
2018-10-19T14:58:10.811Z,31.77
2018-10-19T15:00:39.855Z,35.23
2018-10-19T15:03:08.923Z,28.90
2018-10-19T15:05:37.926Z,34.00
2018-10-19T15:08:06.955Z,34.92
2018-10-19T15:10:36.216Z,32.25
2018-10-19T15:13:05.075Z,32.03
2018-10-19T15:15:34.116Z,29.87
2018-10-19T15:18:03.183Z,29.07
2018-10-19T15:20:32.222Z,28.75
2018-10-19T15:23:01.236Z,34.15
2018-10-19T15:25:30.280Z,31.52
2018-10-19T15:27:59.350Z,28.50
2018-10-19T15:30:28.380Z,34.03
2018-10-19T15:32:57.573Z,27.77
2018-10-19T15:35:26.575Z,30.27
2018-10-19T15:37:55.587Z,30.00
2018-10-19T15:40:24.644Z,31.97
2018-10-19T15:42:53.674Z,26.97
2018-10-19T15:45:22.708Z,29.87
2018-10-19T15:47:51.739Z,30.13
2018-10-19T15:50:20.808Z,26.00
2018-10-19T15:52:49.842Z,32.03
2018-10-19T15:55:18.872Z,30.13
2018-10-19T15:57:47.923Z,30.37
2018-10-19T16:00:16.987Z,29.10
2018-10-19T16:02:45.980Z,31.17
2018-10-19T16:05:15.042Z,31.70
2018-10-19T16:07:44.076Z,29.07
2018-10-19T16:10:13.135Z,28.50
2018-10-19T16:12:42.107Z,31.53
2018-10-19T16:15:11.638Z,32.30
2018-10-19T16:17:40.910Z,27.90
2018-10-19T16:20:10.575Z,35.27
2018-10-19T16:22:39.611Z,33.03
2018-10-19T16:25:09.107Z,28.43
2018-10-19T16:27:39.132Z,26.80
2018-10-19T16:30:09.141Z,31.77
2018-10-19T16:32:38.979Z,27.37
2018-10-19T16:35:08.376Z,27.63
2018-10-19T16:37:37.933Z,34.33
2018-10-19T16:40:07.067Z,33.57
2018-10-19T16:42:36.102Z,29.93
2018-10-19T16:45:06.231Z,31.83
2018-10-19T16:47:35.276Z,28.83
2018-10-19T16:50:04.447Z,29.43
2018-10-19T16:52:33.572Z,31.57
2018-10-19T16:55:02.580Z,28.90
2018-10-19T16:57:32.026Z,32.57
2018-10-19T17:00:01.116Z,30.17
2018-10-19T17:02:30.185Z,34.83
2018-10-19T17:04:59.252Z,32.27
2018-10-19T17:07:28.371Z,32.53
2018-10-19T17:09:57.394Z,35.13
2018-10-19T17:12:26.408Z,32.70
2018-10-19T17:14:55.487Z,35.23
2018-10-19T17:17:24.472Z,33.83
2018-10-19T17:19:53.512Z,32.97
2018-10-19T17:22:22.531Z,40.60
2018-10-19T17:24:51.654Z,38.03
2018-10-19T17:27:20.735Z,34.93
2018-10-19T17:29:49.756Z,38.33
2018-10-19T17:32:18.783Z,36.73
2018-10-19T17:34:47.811Z,35.30
2018-10-19T17:37:16.959Z,37.77
2018-10-19T17:39:46.042Z,43.67
2018-10-19T17:42:15.116Z,38.17
2018-10-19T17:44:44.086Z,35.27
2018-10-19T17:47:13.171Z,39.43
2018-10-19T17:49:42.146Z,37.27
2018-10-19T17:52:11.160Z,37.83
2018-10-19T17:54:40.205Z,39.77
2018-10-19T17:57:09.268Z,40.30
2018-10-19T17:59:38.290Z,46.00
2018-10-19T18:02:07.303Z,40.07
2018-10-19T18:04:36.416Z,42.17
2018-10-19T18:07:05.791Z,37.43
2018-10-19T18:09:34.939Z,37.97
2018-10-19T18:12:03.972Z,38.47
2018-10-19T18:14:33.007Z,37.17
2018-10-19T18:17:02.155Z,38.73
2018-10-19T18:19:31.176Z,38.50
2018-10-19T18:22:00.288Z,42.53
2018-10-19T18:24:29.273Z,39.80
2018-10-19T18:26:58.320Z,59.63
2018-10-19T18:29:27.363Z,78.57
2018-10-19T18:31:56.447Z,43.70
2018-10-19T18:34:25.414Z,42.93
2018-10-19T18:36:54.451Z,38.77
2018-10-19T18:39:23.482Z,41.63
2018-10-19T18:41:52.543Z,45.80
2018-10-19T18:44:21.716Z,39.43
2018-10-19T18:46:50.805Z,41.00
2018-10-19T18:49:19.931Z,45.30
2018-10-19T18:51:49.177Z,39.70
2018-10-19T18:54:18.336Z,41.00
2018-10-19T18:56:47.460Z,42.07
2018-10-19T18:59:16.698Z,44.77
2018-10-19T19:01:45.696Z,38.97
2018-10-19T19:04:14.782Z,38.57
2018-10-19T19:06:43.799Z,42.03
2018-10-19T19:09:14.319Z,39.30
2018-10-19T19:11:44.151Z,39.90
2018-10-19T19:14:14.226Z,36.27
2018-10-19T19:16:43.381Z,40.97
2018-10-19T19:19:12.444Z,39.77
2018-10-19T19:21:41.475Z,40.20
2018-10-19T19:24:15.767Z,42.53
2018-10-19T19:26:44.820Z,40.07
2018-10-19T19:29:13.912Z,40.37
2018-10-19T19:31:42.962Z,40.00
2018-10-19T19:41:34.775Z,39.07
2018-10-19T19:44:03.888Z,36.83
2018-10-19T19:46:32.875Z,40.63
2018-10-19T19:49:07.531Z,39.57
2018-10-19T19:51:36.651Z,34.90
2018-10-19T19:54:06.043Z,42.03
2018-10-19T19:56:35.440Z,45.93
2018-10-19T19:59:04.609Z,39.07
2018-10-19T20:01:33.627Z,44.13
2018-10-19T20:04:02.679Z,43.33
2018-10-19T20:06:31.709Z,41.70
2018-10-19T20:09:00.763Z,42.80
2018-10-19T20:11:29.807Z,41.30
2018-10-19T20:13:58.914Z,43.00
2018-10-19T20:16:27.893Z,42.47
2018-10-19T20:18:56.915Z,48.10
2018-10-19T20:21:25.963Z,40.87
2018-10-19T20:23:54.975Z,41.83
2018-10-19T20:26:24.011Z,44.17
2018-10-19T20:28:53.056Z,48.43
2018-10-19T20:31:22.111Z,43.37
2018-10-19T20:33:51.145Z,44.97
2018-10-19T20:36:20.188Z,49.50
2018-10-19T20:38:49.371Z,44.13
2018-10-19T20:41:18.439Z,44.77
2018-10-19T20:43:47.439Z,43.00
2018-10-19T20:46:16.471Z,44.47
2018-10-19T20:48:45.507Z,44.17
2018-10-19T20:51:14.623Z,44.53
2018-10-19T20:53:44.008Z,45.50
2018-10-19T20:56:13.167Z,41.57
2018-10-19T20:58:42.171Z,43.77
2018-10-19T21:01:11.246Z,43.07
2018-10-19T21:03:40.283Z,41.80
2018-10-19T21:06:09.349Z,41.83
2018-10-19T21:08:38.397Z,44.00
2018-10-19T21:11:08.062Z,45.03
2018-10-19T21:13:37.067Z,45.27
2018-10-19T21:16:06.331Z,42.13
2018-10-19T21:18:35.356Z,42.77
2018-10-19T21:21:04.681Z,39.63
2018-10-19T21:23:33.732Z,37.20
2018-10-19T21:26:02.782Z,39.33
2018-10-19T21:28:31.803Z,38.13
2018-10-19T21:31:00.831Z,42.57
2018-10-19T21:33:29.876Z,43.57
2018-10-19T21:35:58.904Z,42.83
2018-10-19T21:38:27.935Z,45.73
2018-10-19T21:40:56.992Z,42.07
2018-10-19T21:43:26.020Z,46.63
2018-10-19T21:45:55.062Z,42.87
2018-10-19T21:48:24.083Z,43.03
2018-10-19T21:50:53.184Z,43.20
2018-10-19T21:53:22.217Z,43.97
2018-10-19T21:55:51.323Z,40.93
2018-10-19T21:58:20.367Z,41.63
2018-10-19T22:00:49.438Z,42.50
2018-10-19T22:03:18.456Z,43.63
2018-10-19T22:05:47.492Z,50.60
2018-10-19T22:08:16.520Z,43.93
2018-10-19T22:10:45.552Z,43.50
2018-10-19T22:13:14.663Z,42.47
2018-10-19T22:15:43.630Z,41.07
2018-10-19T22:18:12.692Z,43.67
2018-10-19T22:20:41.723Z,43.83
2018-10-19T22:23:11.091Z,43.13
2018-10-19T22:25:40.071Z,41.87
2018-10-19T22:28:09.083Z,41.57
2018-10-19T22:30:38.127Z,45.23
2018-10-19T22:33:07.152Z,41.27
2018-10-19T22:35:36.195Z,39.93
2018-10-19T22:38:05.219Z,38.73
2018-10-19T22:40:34.440Z,41.83
2018-10-19T22:43:03.514Z,38.13
2018-10-19T22:45:32.499Z,43.43
2018-10-19T22:48:01.541Z,37.50
2018-10-19T22:50:30.824Z,37.93
2018-10-19T22:53:02.841Z,36.07
2018-10-19T22:55:31.871Z,33.80
2018-10-19T22:58:01.319Z,36.23
2018-10-19T23:00:30.371Z,40.23
2018-10-19T23:02:59.390Z,33.10
2018-10-19T23:05:28.432Z,40.07
2018-10-19T23:07:57.485Z,38.57
2018-10-19T23:10:26.638Z,33.13
2018-10-19T23:12:55.754Z,35.33
2018-10-19T23:15:24.787Z,31.87
2018-10-19T23:17:53.873Z,33.47
2018-10-19T23:20:22.923Z,33.17
2018-10-19T23:22:51.961Z,31.00
2018-10-19T23:25:21.004Z,36.67
2018-10-19T23:27:50.041Z,30.87
2018-10-19T23:30:19.102Z,33.47
2018-10-19T23:32:48.164Z,33.87
2018-10-19T23:35:17.335Z,31.27
2018-10-19T23:37:46.299Z,30.13
2018-10-19T23:40:15.255Z,35.27
2018-10-19T23:42:44.275Z,35.37
2018-10-19T23:45:13.339Z,32.63
2018-10-19T23:47:42.374Z,34.43
2018-10-19T23:50:11.531Z,43.57
2018-10-19T23:52:40.556Z,44.47
2018-10-19T23:55:09.646Z,44.17
2018-10-19T23:57:38.615Z,46.90
